createdAt,value
2022-12-27T00:02:18.247Z,7.00
2022-12-27T00:04:45.394Z,9.60
2022-12-27T00:07:12.377Z,7.22
2022-12-27T00:09:39.328Z,7.45
2022-12-27T00:12:06.591Z,6.90
2022-12-27T00:14:33.571Z,8.40
2022-12-27T00:17:00.543Z,11.82
2022-12-27T00:19:27.549Z,4.93
2022-12-27T00:21:54.829Z,10.90
2022-12-27T00:24:21.802Z,6.78
2022-12-27T00:26:49.672Z,9.93
2022-12-27T00:29:16.692Z,6.70
2022-12-27T00:31:43.665Z,7.38
2022-12-27T00:34:11.168Z,6.95
2022-12-27T00:36:38.165Z,6.80
2022-12-27T00:39:05.151Z,7.30
2022-12-27T00:41:32.662Z,8.00
2022-12-27T00:43:59.516Z,8.05
2022-12-27T00:46:26.700Z,6.75
2022-12-27T00:48:55.490Z,7.45
2022-12-27T00:51:24.341Z,7.53
2022-12-27T00:53:52.791Z,7.57
2022-12-27T00:56:26.016Z,5.68
2022-12-27T00:59:01.102Z,8.20
2022-12-27T01:01:30.229Z,10.02
2022-12-27T01:03:58.253Z,6.47
2022-12-27T01:06:29.106Z,7.35
2022-12-27T01:08:56.973Z,7.25
2022-12-27T01:11:26.310Z,8.25
2022-12-27T01:13:55.631Z,7.53
2022-12-27T01:16:24.217Z,7.50
2022-12-27T01:18:51.508Z,6.63
2022-12-27T01:21:21.092Z,6.65
2022-12-27T01:23:49.030Z,8.57
2022-12-27T01:26:21.326Z,8.10
2022-12-27T01:28:49.494Z,7.55
2022-12-27T01:31:24.894Z,8.30
2022-12-27T01:33:57.084Z,7.95
2022-12-27T01:36:26.009Z,8.38
2022-12-27T01:38:53.047Z,8.25
2022-12-27T01:41:42.603Z,8.07
2022-12-27T01:44:38.898Z,7.57
2022-12-27T01:47:20.802Z,6.47
2022-12-27T01:50:07.683Z,7.45
2022-12-27T01:52:44.719Z,8.60
2022-12-27T01:55:27.742Z,9.07
2022-12-27T01:58:00.407Z,7.97
2022-12-27T02:00:27.662Z,8.38
2022-12-27T02:02:54.914Z,8.30
2022-12-27T02:05:24.431Z,7.50
2022-12-27T02:08:02.443Z,7.25
2022-12-27T02:10:29.947Z,6.95
2022-12-27T02:12:57.877Z,8.27
2022-12-27T02:15:24.720Z,9.43
2022-12-27T02:17:51.866Z,7.53
2022-12-27T02:20:22.914Z,7.30
2022-12-27T02:23:23.867Z,7.40
2022-12-27T02:25:51.050Z,8.55
2022-12-27T02:28:33.466Z,6.72
2022-12-27T02:31:11.069Z,7.18
2022-12-27T02:33:45.919Z,7.68
2022-12-27T02:36:20.069Z,7.65
2022-12-27T02:38:53.325Z,7.88
2022-12-27T02:41:39.064Z,8.00
2022-12-27T02:44:24.885Z,6.32
2022-12-27T02:47:11.029Z,6.85
2022-12-27T02:52:50.099Z,7.47
2022-12-27T02:55:16.993Z,7.10
2022-12-27T02:57:54.284Z,8.15
2022-12-27T03:00:43.754Z,8.52
2022-12-27T03:03:49.747Z,8.02
2022-12-27T03:06:40.895Z,7.38
2022-12-27T03:09:49.182Z,6.78
2022-12-27T03:12:49.685Z,7.35
2022-12-27T03:15:56.607Z,8.70
2022-12-27T03:21:44.579Z,7.65
2022-12-27T03:24:33.161Z,11.40
2022-12-27T03:27:02.472Z,8.70
2022-12-27T03:30:06.218Z,7.78
2022-12-27T03:32:55.627Z,8.68
2022-12-27T03:35:24.683Z,8.20
2022-12-27T03:38:04.374Z,8.82
2022-12-27T03:41:17.646Z,8.10
2022-12-27T03:43:45.346Z,9.73
2022-12-27T03:46:36.684Z,9.25
2022-12-27T03:49:16.927Z,9.52
2022-12-27T03:51:56.167Z,8.57
2022-12-27T03:54:27.407Z,10.00
2022-12-27T03:56:57.857Z,9.60
2022-12-27T03:59:25.860Z,9.57
2022-12-27T04:01:53.151Z,9.63
2022-12-27T04:04:20.500Z,9.13
2022-12-27T04:06:47.532Z,9.82
2022-12-27T04:09:32.949Z,9.75
2022-12-27T04:12:18.393Z,9.43
2022-12-27T04:15:03.943Z,9.98
2022-12-27T04:17:49.461Z,10.48
2022-12-27T04:20:35.046Z,8.05
2022-12-27T04:23:20.712Z,8.80
2022-12-27T04:26:06.616Z,9.43
2022-12-27T04:28:52.346Z,9.18
2022-12-27T04:31:37.740Z,8.55
2022-12-27T04:34:23.282Z,9.88
2022-12-27T04:36:50.411Z,10.93
2022-12-27T04:39:17.671Z,8.77
2022-12-27T04:42:03.410Z,9.30
2022-12-27T04:44:48.900Z,9.68
2022-12-27T04:47:37.631Z,9.07
2022-12-27T04:50:29.140Z,10.68
2022-12-27T04:53:14.616Z,9.10
2022-12-27T04:55:41.657Z,10.65
2022-12-27T04:58:08.560Z,11.35
2022-12-27T05:00:54.175Z,11.10
2022-12-27T05:03:23.451Z,10.23
2022-12-27T05:05:52.252Z,11.38
2022-12-27T05:08:39.631Z,13.10
2022-12-27T05:11:25.790Z,12.00
2022-12-27T05:14:01.704Z,12.52
2022-12-27T05:16:36.421Z,12.20
2022-12-27T05:21:36.877Z,11.93
2022-12-27T05:24:23.337Z,12.55
2022-12-27T05:26:50.213Z,16.40
2022-12-27T05:29:17.247Z,16.30
2022-12-27T05:31:44.300Z,14.60
2022-12-27T05:34:11.405Z,14.10
2022-12-27T05:36:38.426Z,15.27
2022-12-27T05:39:05.266Z,15.27
2022-12-27T05:41:32.222Z,15.27
2022-12-27T05:44:04.844Z,18.15
2022-12-27T05:46:34.085Z,19.23
2022-12-27T05:49:01.180Z,20.40
2022-12-27T05:51:28.583Z,16.27
2022-12-27T05:53:55.734Z,20.48
2022-12-27T05:56:22.740Z,20.90
2022-12-27T05:58:53.875Z,24.40
2022-12-27T06:01:21.401Z,21.75
2022-12-27T06:03:48.445Z,23.88
2022-12-27T06:06:15.474Z,20.45
2022-12-27T06:08:42.579Z,20.23
2022-12-27T06:11:12.286Z,23.75
2022-12-27T06:13:40.924Z,27.17
2022-12-27T06:16:11.005Z,44.80
2022-12-27T06:18:39.744Z,47.55
2022-12-27T06:21:12.204Z,21.75
2022-12-27T06:23:40.885Z,31.73
2022-12-27T06:26:11.751Z,37.38
2022-12-27T06:28:39.046Z,45.00
2022-12-27T06:31:06.233Z,39.80
2022-12-27T06:33:33.449Z,41.22
2022-12-27T06:36:16.016Z,41.40
2022-12-27T06:38:43.573Z,46.58
2022-12-27T06:41:12.896Z,51.80
2022-12-27T06:43:40.115Z,56.70
2022-12-27T06:46:15.384Z,55.47
2022-12-27T06:48:47.489Z,52.08
2022-12-27T06:51:16.301Z,71.03
2022-12-27T06:53:46.792Z,80.88
2022-12-27T06:56:19.192Z,69.93
2022-12-27T06:58:47.320Z,52.30
2022-12-27T07:01:18.800Z,48.90
2022-12-27T07:03:50.770Z,64.28
2022-12-27T07:06:18.183Z,57.42
2022-12-27T07:08:47.010Z,44.92
2022-12-27T07:11:15.593Z,57.00
2022-12-27T07:13:45.193Z,104.32
2022-12-27T07:16:14.601Z,64.38
2022-12-27T07:18:41.818Z,79.28
2022-12-27T07:21:11.551Z,78.68
2022-12-27T07:23:39.305Z,94.55
2022-12-27T07:26:09.376Z,83.63
2022-12-27T07:28:36.892Z,67.78
2022-12-27T07:31:08.641Z,99.95
2022-12-27T07:33:37.277Z,89.10
2022-12-27T07:36:07.535Z,105.35
2022-12-27T07:38:34.538Z,84.88
2022-12-27T07:41:02.761Z,64.43
2022-12-27T07:43:34.858Z,64.20
2022-12-27T07:46:06.984Z,74.38
2022-12-27T07:48:34.168Z,78.03
2022-12-27T07:51:01.885Z,62.83
2022-12-27T07:53:30.879Z,82.80
2022-12-27T07:55:58.319Z,92.53
2022-12-27T07:58:25.371Z,63.78
2022-12-27T08:00:53.132Z,87.40
2022-12-27T08:03:20.840Z,89.72
2022-12-27T08:05:49.853Z,73.70
2022-12-27T08:08:18.302Z,56.35
2022-12-27T08:10:45.389Z,56.88
2022-12-27T08:13:12.326Z,66.65
2022-12-27T08:15:42.825Z,49.83
2022-12-27T08:18:10.051Z,57.97
2022-12-27T08:20:37.266Z,72.55
2022-12-27T08:23:04.097Z,67.20
2022-12-27T08:25:31.424Z,68.68
2022-12-27T08:28:11.534Z,60.42
2022-12-27T08:30:39.585Z,71.90
2022-12-27T08:33:06.997Z,72.25
2022-12-27T08:35:54.606Z,60.15
2022-12-27T08:38:22.095Z,73.00
2022-12-27T08:40:48.990Z,85.97
2022-12-27T08:43:17.182Z,101.90
2022-12-27T08:45:44.007Z,80.82
2022-12-27T08:48:11.054Z,103.72
2022-12-27T08:50:38.466Z,83.70
2022-12-27T08:53:06.269Z,87.32
2022-12-27T08:55:34.512Z,74.75
2022-12-27T08:58:12.064Z,69.00
2022-12-27T09:00:42.950Z,104.25
2022-12-27T09:03:10.031Z,94.32
2022-12-27T09:05:41.702Z,71.85
2022-12-27T09:08:09.770Z,63.88
2022-12-27T09:10:36.906Z,81.82
2022-12-27T09:13:04.618Z,69.45
2022-12-27T09:15:31.489Z,52.60
2022-12-27T09:17:58.489Z,76.10
2022-12-27T09:20:25.578Z,69.38
2022-12-27T09:22:52.473Z,72.25
2022-12-27T09:25:19.439Z,80.78
2022-12-27T09:27:46.465Z,91.50
2022-12-27T09:30:13.819Z,94.75
2022-12-27T09:32:40.846Z,54.90
2022-12-27T09:35:08.014Z,68.03
2022-12-27T09:37:34.964Z,57.25
2022-12-27T09:40:02.111Z,64.43
2022-12-27T09:45:36.102Z,62.83
2022-12-27T09:48:12.806Z,75.45
2022-12-27T09:50:53.492Z,107.93
2022-12-27T09:54:10.180Z,107.93
2022-12-27T09:57:02.103Z,78.15
2022-12-27T09:59:39.721Z,73.28
2022-12-27T10:02:24.241Z,54.80
2022-12-27T10:05:19.691Z,58.20
2022-12-27T10:08:05.464Z,61.58
2022-12-27T10:10:47.717Z,69.18
2022-12-27T10:13:31.452Z,56.13
2022-12-27T10:16:27.773Z,67.40
2022-12-27T10:19:13.454Z,56.78
2022-12-27T10:22:10.707Z,59.60
2022-12-27T10:24:47.785Z,68.35
2022-12-27T10:27:29.194Z,56.45
2022-12-27T10:29:58.578Z,64.40
2022-12-27T10:32:27.060Z,69.80
2022-12-27T10:34:57.664Z,69.85
2022-12-27T10:37:24.824Z,65.90
2022-12-27T10:39:51.921Z,82.72
2022-12-27T10:42:39.946Z,72.55
2022-12-27T10:45:41.206Z,62.78
2022-12-27T10:48:25.099Z,58.25
2022-12-27T10:51:01.014Z,55.75
2022-12-27T10:53:36.170Z,65.53
2022-12-27T10:56:15.347Z,63.40
2022-12-27T10:58:58.092Z,49.33
2022-12-27T11:01:30.715Z,51.10
2022-12-27T11:04:20.080Z,38.33
2022-12-27T11:07:11.810Z,36.95
2022-12-27T11:09:50.175Z,52.78
2022-12-27T11:12:26.217Z,52.05
2022-12-27T11:15:01.774Z,52.08
2022-12-27T11:17:44.541Z,48.40
2022-12-27T11:20:12.431Z,94.38
2022-12-27T11:22:45.552Z,76.93
2022-12-27T11:25:15.553Z,98.97
2022-12-27T11:27:52.304Z,80.20
2022-12-27T11:30:29.788Z,83.40
2022-12-27T11:33:01.552Z,91.88
2022-12-27T11:35:28.686Z,87.53
2022-12-27T11:37:56.625Z,90.50
2022-12-27T11:40:27.726Z,104.88
2022-12-27T11:43:07.193Z,90.78
2022-12-27T11:45:40.693Z,106.25
2022-12-27T11:48:30.324Z,82.40
2022-12-27T11:51:06.232Z,115.75
2022-12-27T11:54:06.220Z,99.00
2022-12-27T11:56:37.118Z,87.68
2022-12-27T11:59:22.673Z,77.38
2022-12-27T12:02:34.251Z,125.70
2022-12-27T12:05:01.190Z,140.10
2022-12-27T12:07:37.464Z,113.13
2022-12-27T12:10:29.387Z,114.80
2022-12-27T12:13:32.189Z,108.63
2022-12-27T12:16:36.687Z,71.60
2022-12-27T12:19:09.725Z,101.05
2022-12-27T12:22:03.874Z,77.72
2022-12-27T12:24:43.695Z,69.93
2022-12-27T12:27:28.365Z,89.82
2022-12-27T12:30:04.379Z,67.35
2022-12-27T12:32:56.963Z,78.75
2022-12-27T12:35:33.179Z,58.30
2022-12-27T12:38:03.442Z,54.55
2022-12-27T12:41:06.064Z,45.90
2022-12-27T12:43:39.146Z,59.38
2022-12-27T12:46:24.911Z,65.43
2022-12-27T12:49:04.463Z,59.60
2022-12-27T12:52:00.576Z,73.28
2022-12-27T12:54:30.656Z,61.33
2022-12-27T12:57:15.904Z,50.80
2022-12-27T12:59:55.001Z,78.85
2022-12-27T13:02:57.425Z,56.17
2022-12-27T13:05:39.061Z,46.13
2022-12-27T13:08:49.497Z,44.20
2022-12-27T13:11:54.693Z,46.47
2022-12-27T13:14:42.643Z,35.67
2022-12-27T13:17:42.381Z,39.75
2022-12-27T13:20:34.322Z,43.40
2022-12-27T13:23:19.283Z,38.30
2022-12-27T13:25:52.521Z,26.60
2022-12-27T13:28:31.464Z,24.90
2022-12-27T13:31:24.649Z,38.83
2022-12-27T13:34:03.944Z,31.60
2022-12-27T13:37:02.807Z,30.10
2022-12-27T13:40:06.395Z,22.73
2022-12-27T13:43:06.087Z,26.85
2022-12-27T13:45:58.029Z,20.63
2022-12-27T13:48:43.629Z,18.00
2022-12-27T13:51:37.300Z,19.88
2022-12-27T13:54:27.275Z,24.02
2022-12-27T13:57:19.445Z,22.30
2022-12-27T14:00:00.341Z,23.38
2022-12-27T14:02:51.501Z,23.92
2022-12-27T14:05:21.735Z,19.10
2022-12-27T14:07:56.813Z,18.48
2022-12-27T14:10:33.055Z,22.45
2022-12-27T14:13:02.885Z,20.13
2022-12-27T14:15:54.471Z,20.42
2022-12-27T14:18:39.148Z,19.35
2022-12-27T14:21:43.411Z,23.35
2022-12-27T14:24:40.807Z,17.90
2022-12-27T14:27:07.740Z,19.85
2022-12-27T14:29:59.576Z,13.77
2022-12-27T14:32:38.301Z,16.90
2022-12-27T14:35:20.295Z,18.25
2022-12-27T14:38:06.765Z,13.88
2022-12-27T14:40:58.932Z,14.63
2022-12-27T14:43:41.157Z,14.35
2022-12-27T14:46:08.193Z,15.52
2022-12-27T14:48:53.154Z,15.73
2022-12-27T14:54:50.024Z,12.80
2022-12-27T14:57:34.069Z,10.85
2022-12-27T15:00:21.559Z,9.13
2022-12-27T15:03:01.620Z,7.72
2022-12-27T15:06:04.430Z,9.20
2022-12-27T15:08:56.776Z,7.00
2022-12-27T15:12:00.628Z,6.53
2022-12-27T15:14:45.593Z,7.85
2022-12-27T15:17:34.420Z,9.80
2022-12-27T15:20:35.051Z,5.00
2022-12-27T15:23:27.613Z,3.00
2022-12-27T15:26:31.413Z,2.20
2022-12-27T15:29:33.201Z,2.15
2022-12-27T15:32:09.297Z,3.85
2022-12-27T15:35:03.731Z,3.22
2022-12-27T15:37:53.113Z,2.58
2022-12-27T15:40:29.330Z,3.55
2022-12-27T15:43:04.392Z,3.40
2022-12-27T15:45:49.937Z,2.47
2022-12-27T15:48:31.164Z,1.98
2022-12-27T15:51:01.293Z,1.95
2022-12-27T15:53:38.067Z,2.10
2022-12-27T15:56:22.943Z,1.48
2022-12-27T15:59:27.836Z,1.50
2022-12-27T16:02:52.446Z,1.60
2022-12-27T16:05:19.618Z,1.05
2022-12-27T16:08:10.394Z,1.48
2022-12-27T16:10:40.755Z,1.70
2022-12-27T16:13:11.235Z,2.30
2022-12-27T16:15:51.295Z,2.33
2022-12-27T16:18:24.824Z,1.33
2022-12-27T16:21:02.704Z,0.90
2022-12-27T16:23:36.423Z,1.73
2022-12-27T16:26:24.551Z,1.08
2022-12-27T16:29:15.430Z,0.95
2022-12-27T16:31:48.159Z,0.80
2022-12-27T16:34:24.632Z,0.70
2022-12-27T16:36:54.814Z,1.17
2022-12-27T16:39:50.082Z,1.35
2022-12-27T16:42:23.925Z,1.00
2022-12-27T16:45:03.249Z,2.08
2022-12-27T16:47:45.169Z,1.33
2022-12-27T16:50:33.593Z,1.45
2022-12-27T16:53:23.681Z,0.82
2022-12-27T16:56:05.941Z,0.80
2022-12-27T16:58:40.358Z,0.80
2022-12-27T17:01:36.984Z,1.60
2022-12-27T17:04:49.621Z,1.02
2022-12-27T17:07:54.325Z,0.98
2022-12-27T17:10:28.247Z,1.60
2022-12-27T17:13:13.741Z,0.82
2022-12-27T17:16:08.108Z,0.85
2022-12-27T17:18:47.592Z,1.10
2022-12-27T17:21:30.110Z,2.60
2022-12-27T17:24:08.153Z,2.75
2022-12-27T17:26:49.422Z,1.50
2022-12-27T17:29:40.830Z,1.33
2022-12-27T17:32:35.240Z,1.55
2022-12-27T17:35:23.334Z,0.95
2022-12-27T17:38:26.148Z,1.75
2022-12-27T17:41:48.038Z,3.50
2022-12-27T17:44:41.146Z,2.47
2022-12-27T17:47:25.875Z,1.55
2022-12-27T17:49:54.089Z,4.68
2022-12-27T17:52:44.336Z,3.80
2022-12-27T17:55:43.709Z,5.88
2022-12-27T17:58:13.973Z,2.55
2022-12-27T18:00:45.598Z,3.83
2022-12-27T18:03:28.048Z,3.53
2022-12-27T18:05:57.971Z,5.45
2022-12-27T18:08:30.964Z,8.75
2022-12-27T18:10:59.862Z,4.20
2022-12-27T18:13:33.747Z,5.10
2022-12-27T18:16:05.108Z,2.30
2022-12-27T18:18:35.115Z,4.65
2022-12-27T18:21:04.557Z,2.05
2022-12-27T18:23:43.220Z,3.67
2022-12-27T18:26:13.802Z,4.82
2022-12-27T18:28:42.479Z,5.72
2022-12-27T18:31:28.408Z,4.70
2022-12-27T18:36:39.786Z,4.18
2022-12-27T18:39:18.897Z,4.32
2022-12-27T18:41:51.211Z,2.70
2022-12-27T18:44:27.134Z,6.25
2022-12-27T18:46:58.653Z,3.83
2022-12-27T18:49:44.087Z,6.82
2022-12-27T18:52:21.513Z,4.00
2022-12-27T18:54:49.412Z,4.45
2022-12-27T18:57:33.447Z,3.40
2022-12-27T19:00:03.242Z,6.20
2022-12-27T19:02:36.982Z,2.22
2022-12-27T19:05:19.071Z,4.22
2022-12-27T19:07:55.681Z,4.20
2022-12-27T19:10:26.404Z,4.57
2022-12-27T19:12:54.878Z,3.80
2022-12-27T19:15:25.184Z,4.13
2022-12-27T19:17:56.810Z,7.93
2022-12-27T19:20:30.696Z,5.18
2022-12-27T19:23:02.089Z,6.57
2022-12-27T19:25:31.925Z,1.90
2022-12-27T19:27:59.999Z,3.80
2022-12-27T19:31:16.465Z,3.30
2022-12-27T19:33:47.048Z,5.53
2022-12-27T19:36:14.803Z,5.25
2022-12-27T19:38:47.869Z,4.80
2022-12-27T19:41:15.563Z,7.20
2022-12-27T19:43:45.279Z,5.22
2022-12-27T19:46:14.319Z,3.45
2022-12-27T19:48:41.571Z,5.10
2022-12-27T19:51:15.796Z,1.67
2022-12-27T19:53:45.538Z,2.58
2022-12-27T19:56:12.703Z,4.03
2022-12-27T19:58:39.735Z,4.55
2022-12-27T20:01:07.257Z,5.82
2022-12-27T20:03:34.383Z,11.55
2022-12-27T20:06:13.058Z,4.47
2022-12-27T20:08:48.403Z,6.32
2022-12-27T20:11:18.404Z,7.20
2022-12-27T20:13:45.985Z,5.38
2022-12-27T20:16:15.298Z,4.35
2022-12-27T20:18:43.455Z,4.13
2022-12-27T20:21:15.637Z,4.50
2022-12-27T20:23:45.003Z,8.43
2022-12-27T20:26:18.387Z,4.30
2022-12-27T20:28:46.092Z,4.30
2022-12-27T20:31:16.229Z,6.53
2022-12-27T20:33:43.719Z,8.07
2022-12-27T20:36:11.850Z,2.75
2022-12-27T20:38:39.479Z,4.85
2022-12-27T20:41:11.917Z,7.65
2022-12-27T20:43:40.349Z,4.40
2022-12-27T20:46:12.360Z,4.82
2022-12-27T20:48:41.068Z,6.43
2022-12-27T20:51:10.143Z,3.13
2022-12-27T20:53:37.253Z,7.03
2022-12-27T20:56:05.596Z,6.80
2022-12-27T20:58:33.597Z,3.75
2022-12-27T21:01:14.216Z,6.30
2022-12-27T21:03:43.036Z,5.35
2022-12-27T21:06:18.909Z,8.75
2022-12-27T21:08:52.477Z,7.35
2022-12-27T21:11:27.326Z,4.40
2022-12-27T21:13:55.499Z,5.93
2022-12-27T21:16:25.560Z,3.95
2022-12-27T21:18:53.396Z,4.28
2022-12-27T21:21:27.373Z,4.57
2022-12-27T21:23:55.797Z,3.72
2022-12-27T21:26:25.536Z,4.75
2022-12-27T21:28:53.332Z,5.63
2022-12-27T21:31:21.180Z,7.53
2022-12-27T21:33:48.687Z,2.78
2022-12-27T21:39:05.594Z,4.95
2022-12-27T21:41:35.609Z,1.90
2022-12-27T21:44:03.417Z,3.70
2022-12-27T21:46:38.433Z,5.93
2022-12-27T21:49:08.999Z,3.20
2022-12-27T21:51:38.013Z,5.82
2022-12-27T21:54:05.546Z,4.68
2022-12-27T21:56:32.864Z,4.97
2022-12-27T21:59:03.212Z,13.32
2022-12-27T22:01:50.352Z,4.22
2022-12-27T22:04:21.294Z,6.68
2022-12-27T22:06:48.551Z,5.78
2022-12-27T22:09:16.174Z,9.20
2022-12-27T22:11:43.240Z,4.38
2022-12-27T22:14:10.343Z,3.67
2022-12-27T22:16:39.263Z,6.18
2022-12-27T22:19:10.561Z,13.73
2022-12-27T22:21:39.021Z,12.93
2022-12-27T22:24:06.754Z,7.75
2022-12-27T22:26:37.501Z,7.50
2022-12-27T22:29:05.595Z,7.28
2022-12-27T22:31:38.322Z,4.18
2022-12-27T22:34:06.536Z,4.82
2022-12-27T22:36:34.647Z,7.78
2022-12-27T22:39:02.465Z,6.22
2022-12-27T22:41:34.569Z,5.82
2022-12-27T22:44:04.741Z,3.33
2022-12-27T22:46:58.572Z,6.45
2022-12-27T22:49:20.398Z,7.95
2022-12-27T22:51:50.184Z,4.80
2022-12-27T22:54:19.816Z,5.78
2022-12-27T22:56:47.033Z,9.25
2022-12-27T22:59:19.061Z,2.63
2022-12-27T23:01:46.987Z,5.97
2022-12-27T23:04:14.933Z,3.78
2022-12-27T23:06:42.839Z,6.10
2022-12-27T23:09:10.563Z,4.80
2022-12-27T23:11:41.133Z,8.68
2022-12-27T23:14:14.686Z,7.00
2022-12-27T23:16:44.317Z,5.95
2022-12-27T23:19:13.384Z,5.97
2022-12-27T23:21:41.320Z,7.00
2022-12-27T23:24:09.617Z,4.32
2022-12-27T23:26:37.095Z,5.07
2022-12-27T23:29:07.115Z,6.88
2022-12-27T23:31:34.343Z,8.45
2022-12-27T23:34:01.474Z,5.13
2022-12-27T23:36:28.625Z,6.75
2022-12-27T23:38:56.696Z,5.93
2022-12-27T23:41:25.787Z,7.68
2022-12-27T23:43:55.274Z,6.38
2022-12-27T23:46:29.415Z,6.60
2022-12-27T23:48:58.157Z,7.53
2022-12-27T23:51:25.365Z,5.78
2022-12-27T23:53:52.476Z,5.00
2022-12-27T23:56:25.671Z,6.03
2022-12-27T23:58:54.943Z,5.00
